Latest Weather Observations for Viewbank

IDV60801

Issued at 11:05 pm EST Saturday 26 July 2014 (issued every 30 minutes, with the page automatically refreshed every 10 minutes)

About weather observations | Map of weather stations | Latest weather observations for VIC | Other Formats
Station Details ID: 086068 Name: VIEWBANK Lat: -37.74 Lon: 145.10 Height: 66.1 m
Data from the previous 72 hours. | See also: Recent months at Viewbank
Date/Time
EST
Temp
°C
App
Temp
°C
Dew
Point
Rel
Hum
%
Delta-T
°C
Wind Press
QNH
hPa
Press
MSL
hPa
Rain
since 9 am
mm
Dir
 
Spd
km/h
Gust
km/h
Spd
kts
Gust
kts
26/11:00pm 11.4 9.1 9.1 86 1.1 W 11 17 6 9 1025.7 1025.8 1.0
26/10:30pm 11.5 9.5 10.1 91 0.7 W 11 17 6 9 1025.7 - 1.0
26/10:00pm 11.5 10.4 10.7 95 0.4 W 7 11 4 6 1025.7 1025.8 1.0
26/09:30pm 11.7 9.9 10.9 95 0.4 W 11 19 6 10 1025.6 - 1.0
26/09:00pm 11.7 9.7 11.5 99 0.1 W 13 24 7 13 1025.5 1025.6 1.0
26/08:30pm 12.0 10.4 11.4 96 0.3 W 11 19 6 10 1025.3 - 1.0
26/08:00pm 11.9 10.7 11.7 99 0.1 W 9 15 5 8 1025.1 1025.2 1.0
26/07:30pm 11.8 11.2 11.6 99 0.1 W 6 13 3 7 1025.0 - 1.0
26/07:00pm 11.6 10.7 11.4 99 0.1 W 7 11 4 6 1024.8 1024.9 1.0
26/06:30pm 11.7 10.8 11.5 99 0.1 W 7 9 4 5 1024.5 - 1.0
26/06:00pm 11.6 9.6 11.6 100 0.0 WSW 13 22 7 12 1024.3 1024.4 1.0
26/05:30pm 11.5 9.9 11.5 100 0.0 WSW 11 19 6 10 1024.1 - 1.0
26/05:00pm 11.7 10.1 11.7 100 0.0 SW 11 19 6 10 1023.9 1024.0 1.0
26/04:30pm 12.0 9.7 11.8 99 0.1 SSW 15 22 8 12 1023.5 - 0.6
26/04:00pm 13.8 11.3 9.6 76 2.2 W 13 20 7 11 1023.1 1023.2 0.4
26/03:30pm 13.8 12.7 10.8 82 1.6 W 7 11 4 6 1022.9 - 0.4
26/03:00pm 13.5 12.4 12.1 91 0.8 WSW 9 13 5 7 1022.8 1022.9 0.4
26/02:30pm 13.1 11.4 11.2 88 1.0 WSW 11 19 6 10 1022.6 - 0.4
26/02:00pm 13.2 11.3 10.6 84 1.4 W 11 17 6 9 1022.5 1022.6 0.2
26/01:30pm 13.5 11.7 9.4 76 2.1 W 9 17 5 9 1022.4 - 0.0
26/01:00pm 13.2 11.4 9.6 79 1.8 NW 9 13 5 7 1022.6 1022.7 0.0
26/12:30pm 13.3 10.3 9.4 77 2.0 W 15 24 8 13 1022.9 - 0.0
26/12:00pm 13.9 10.3 8.5 70 2.7 W 17 26 9 14 1023.1 1023.2 0.0
26/11:30am 13.7 10.6 9.0 73 2.4 W 15 28 8 15 1023.4 - 0.0
26/11:00am 14.0 10.5 8.8 71 2.6 W 17 30 9 16 1023.6 1023.7 0.0
26/10:30am 13.7 11.1 9.2 74 2.3 W 13 20 7 11 1023.7 - 0.0
26/10:00am 13.1 11.3 9.4 78 1.9 WNW 9 19 5 10 1023.8 1023.9 0.0
26/09:30am 12.5 11.3 9.7 83 1.4 NW 6 9 3 5 1023.5 - 0.0
26/09:00am 12.0 10.6 9.6 85 1.2 NNW 7 9 4 5 1023.1 1023.2 0.4
26/08:30am 11.7 9.9 9.6 87 1.1 N 9 15 5 8 1022.8 - 0.4
26/08:00am 11.4 9.8 10.1 92 0.7 NNW 9 15 5 8 1022.6 1022.7 0.4
26/07:30am 11.1 9.6 10.5 96 0.3 NNW 9 13 5 7 1022.2 - 0.4
26/07:00am 11.3 9.3 10.2 93 0.6 NNW 11 15 6 8 1022.0 1022.1 0.4
26/06:30am 11.3 9.8 10.5 95 0.4 NNW 9 15 5 8 1021.6 - 0.4
26/06:00am 11.2 9.3 10.6 96 0.3 NNW 11 15 6 8 1021.2 1021.3 0.4
26/05:30am 11.4 9.8 10.3 93 0.6 NNW 9 17 5 9 1021.0 - 0.2
26/05:00am 11.2 9.3 10.6 96 0.3 N 11 17 6 9 1020.7 1020.8 0.2
26/04:30am 11.7 9.3 9.9 89 0.9 N 13 17 7 9 1020.6 - 0.2
26/04:00am 11.7 9.6 9.8 88 1.0 N 11 19 6 10 1020.5 1020.6 0.2
26/03:30am 11.9 9.0 9.8 87 1.1 N 15 22 8 12 1020.2 - 0.2
26/03:00am 12.0 8.7 9.7 86 1.2 N 17 24 9 13 1020.2 1020.3 0.2
26/02:30am 12.2 9.3 9.6 84 1.3 N 15 22 8 12 1020.3 - 0.2
26/02:00am 12.2 9.7 9.8 85 1.2 N 13 20 7 11 1020.2 1020.3 0.2
26/01:30am 12.4 10.0 10.1 86 1.2 N 13 20 7 11 1020.2 - 0.2
26/01:00am 12.6 10.6 10.1 85 1.3 N 11 17 6 9 1020.0 1020.1 0.2
26/12:30am 12.5 10.1 10.2 86 1.2 N 13 20 7 11 1020.0 - 0.2
26/12:00am 12.7 10.6 9.9 83 1.4 N 11 17 6 9 1020.0 1020.1 0.2
 
Date/Time
EST
Temp
°C
App
Temp
°C
Dew
Point
Rel
Hum
%
Delta-T
°C
Wind Press
QNH
hPa
Press
MSL
hPa
Rain
since 9 am
mm
Dir
 
Spd
km/h
Gust
km/h
Spd
kts
Gust
kts
25/11:30pm 12.7 10.7 10.2 85 1.3 N 11 20 6 11 1019.9 - 0.2
25/11:00pm 12.9 10.5 9.9 82 1.5 N 13 20 7 11 1019.8 1019.9 0.2
25/10:30pm 12.9 10.5 10.1 83 1.4 N 13 20 7 11 1019.7 - 0.2
25/10:00pm 13.1 11.1 10.3 83 1.4 N 11 20 6 11 1019.6 1019.7 0.2
25/09:30pm 13.0 11.1 10.5 85 1.3 N 11 19 6 10 1019.4 - 0.2
25/09:00pm 13.0 11.1 10.5 85 1.3 N 11 17 6 9 1019.1 1019.2 0.2
25/08:30pm 12.5 10.8 10.0 85 1.3 N 9 15 5 8 1019.0 - 0.2
25/08:00pm 13.2 11.7 10.4 83 1.5 N 9 15 5 8 1019.0 1019.1 0.2
25/07:30pm 13.3 11.1 10.7 84 1.4 N 13 19 7 10 1018.7 - 0.2
25/07:00pm 13.1 11.7 11.0 87 1.1 N 9 20 5 11 1018.4 1018.5 0.2
25/06:30pm 13.5 11.1 10.1 80 1.8 N 13 22 7 12 1017.8 - 0.0
25/06:00pm 13.6 11.2 10.2 80 1.8 N 13 20 7 11 1017.6 1017.7 0.0
25/05:30pm 13.8 11.4 10.2 79 1.9 N 13 22 7 12 1017.2 - 0.0
25/05:00pm 14.3 11.5 9.9 75 2.3 N 15 24 8 13 1017.0 1017.1 0.0
25/04:30pm 14.8 11.9 9.6 71 2.7 N 15 24 8 13 1016.9 - 0.0
25/04:00pm 15.0 12.5 9.6 70 2.8 N 13 24 7 13 1016.6 1016.7 0.0
25/03:30pm 15.0 11.7 9.4 69 2.9 N 17 28 9 15 1016.3 - 0.0
25/03:00pm 15.0 11.0 9.1 68 3.0 N 20 35 11 19 1016.3 1016.4 0.0
25/02:30pm 15.3 11.5 9.7 69 2.9 N 20 39 11 21 1016.0 - 0.0
25/02:00pm 14.9 10.6 9.5 70 2.8 N 22 35 12 19 1016.0 1016.1 0.0
25/01:30pm 14.9 11.2 9.5 70 2.8 N 19 32 10 17 1016.0 - 0.0
25/01:00pm 14.6 11.4 9.8 73 2.5 N 17 26 9 14 1016.2 1016.3 0.0
25/12:30pm 14.2 10.4 9.2 72 2.6 N 19 32 10 17 1016.4 - 0.0
25/12:00pm 13.8 9.9 9.3 74 2.3 N 20 37 11 20 1016.7 1016.8 0.0
25/11:30am 13.6 9.7 9.3 75 2.2 N 20 35 11 19 1016.9 - 0.0
25/11:00am 13.6 9.9 9.5 76 2.1 N 19 32 10 17 1016.9 1017.0 0.0
25/10:30am 13.5 10.1 9.2 75 2.2 N 17 35 9 19 1016.9 - 0.0
25/10:00am 13.7 10.4 9.4 75 2.2 N 17 32 9 17 1016.7 1016.8 0.0
25/09:30am 13.1 9.1 9.2 77 2.0 N 20 33 11 18 1016.6 - 0.0
25/09:00am 12.6 9.2 9.2 80 1.7 N 17 30 9 16 1016.5 1016.6 0.0
25/08:30am 12.3 8.9 9.1 81 1.6 N 17 30 9 16 1016.2 - 0.0
25/08:00am 11.7 8.7 9.3 85 1.2 N 15 30 8 16 1015.9 1016.0 0.0
25/07:30am 11.4 8.7 9.1 86 1.2 N 13 20 7 11 1015.4 - 0.0
25/07:00am 10.7 9.1 10.1 96 0.3 NNE 9 17 5 9 1015.2 1015.3 0.0
25/06:30am 10.3 9.8 9.2 93 0.5 ENE 2 7 1 4 1015.1 - 0.0
25/06:00am 10.8 9.3 9.2 90 0.8 ENE 7 11 4 6 1014.5 1014.6 0.0
25/05:30am 11.0 9.3 9.9 93 0.6 NNE 9 19 5 10 1014.2 - 0.0
25/05:00am 10.4 8.7 8.5 88 0.9 NE 7 11 4 6 1014.0 1014.1 0.0
25/04:30am 10.6 9.2 8.7 88 0.9 NE 6 11 3 6 1013.9 - 0.0
25/04:00am 10.2 9.0 8.1 87 1.0 NE 4 7 2 4 1013.9 1014.0 0.0
25/03:30am 11.1 10.3 8.1 82 1.5 NNE 2 6 1 3 1013.9 - 0.0
25/03:00am 11.4 9.8 8.1 80 1.6 NNE 6 9 3 5 1013.6 1013.7 0.0
25/02:30am 12.0 10.4 7.9 76 2.0 NE 6 11 3 6 1013.4 - 0.0
25/02:00am 12.0 10.2 7.9 76 2.0 NE 7 13 4 7 1013.3 1013.3 0.0
25/01:30am 12.1 10.4 7.6 74 2.2 NE 6 11 3 6 1013.2 - 0.0
25/01:00am 12.0 10.3 7.7 75 2.1 NE 6 11 3 6 1013.2 1013.2 0.0
25/12:30am 11.8 9.8 7.3 74 2.2 ENE 7 9 4 5 1013.3 - 0.0
25/12:00am 12.1 11.5 7.2 72 2.4 CALM 0 6 0 3 1013.5 1013.5 0.0
 
Date/Time
EST
Temp
°C
App
Temp
°C
Dew
Point
Rel
Hum
%
Delta-T
°C
Wind Press
QNH
hPa
Press
MSL
hPa
Rain
since 9 am
mm
Dir
 
Spd
km/h
Gust
km/h
Spd
kts
Gust
kts
24/11:30pm 12.1 10.1 7.0 71 2.5 NE 7 9 4 5 1013.6 - 0.0
24/11:00pm 11.4 9.3 6.7 73 2.2 ENE 7 11 4 6 1013.7 1013.8 0.0
24/10:30pm 11.2 9.6 6.5 73 2.2 E 4 7 2 4 1013.7 - 0.0
24/10:00pm 11.0 8.5 6.4 73 2.2 E 9 13 5 7 1013.5 1013.5 0.0
24/09:30pm 11.1 8.9 6.3 72 2.3 E 7 9 4 5 1013.6 - 0.0
24/09:00pm 11.4 8.8 6.1 70 2.5 E 9 13 5 7 1013.5 1013.5 0.0
24/08:30pm 11.9 10.3 6.2 68 2.7 ENE 4 9 2 5 1013.6 - 0.0
24/08:00pm 11.7 9.7 6.4 70 2.5 NE 6 11 3 6 1013.6 1013.7 0.0
24/07:30pm 11.7 9.7 6.4 70 2.5 NE 6 9 3 5 1013.5 - 0.0
24/07:00pm 11.1 9.3 7.0 76 2.0 NE 6 11 3 6 1013.3 1013.3 0.0
24/06:30pm 11.2 9.2 7.3 77 1.9 ENE 7 9 4 5 1013.2 - 0.0
24/06:00pm 11.9 9.2 7.2 73 2.3 ENE 11 13 6 7 1013.0 1013.0 0.0
24/05:30pm 12.7 10.0 7.2 69 2.7 ENE 11 17 6 9 1012.9 - 0.0
24/05:00pm 13.1 10.4 7.5 69 2.7 ENE 11 15 6 8 1012.9 1012.9 0.0
24/04:30pm 13.1 10.4 7.5 69 2.7 ENE 11 19 6 10 1013.1 - 0.0
24/04:00pm 13.3 9.9 7.5 68 2.8 ENE 15 22 8 12 1012.9 1012.9 0.0
24/03:30pm 13.6 10.6 7.6 67 3.0 NE 13 20 7 11 1013.2 - 0.0
24/03:00pm 13.9 10.9 7.7 66 3.1 NE 13 20 7 11 1013.2 1013.2 0.0
24/02:30pm 13.8 10.3 7.3 65 3.2 NE 15 28 8 15 1013.0 - 0.0
24/02:00pm 14.8 11.6 8.5 66 3.2 NE 15 32 8 17 1013.2 1013.2 0.0
24/01:30pm 14.1 10.4 8.1 67 3.0 NE 17 35 9 19 1013.6 - 0.0
24/01:00pm 13.7 9.6 7.9 68 2.9 NE 19 37 10 20 1014.2 1014.3 0.0
24/12:30pm 12.7 8.9 7.6 71 2.5 ENE 17 24 9 13 1014.7 - 0.0
24/12:00pm 12.4 9.4 7.5 72 2.4 NE 13 24 7 13 1015.2 1015.3 0.0
24/11:30am 12.1 8.6 7.4 73 2.3 NE 15 32 8 17 1016.2 - 0.0
24/11:00am 9.8 8.1 7.6 86 1.1 ESE 6 11 3 6 1016.6 1016.7 0.0
24/10:30am 8.6 6.7 6.9 89 0.8 E 6 11 3 6 1016.9 - 0.0
24/10:00am 7.9 5.8 5.9 87 0.9 E 6 9 3 5 1016.9 1017.0 0.0
24/09:30am 7.5 6.5 5.8 89 0.8 CALM 0 0 0 0 1016.6 - 0.0
24/09:00am 7.1 4.8 5.6 90 0.7 E 7 9 4 5 1016.5 1016.6 0.0
24/08:30am 6.8 4.5 5.7 93 0.5 ENE 7 11 4 6 1016.4 - 0.0
24/08:00am 6.4 4.2 6.3 99 0.0 ENE 7 11 4 6 1016.4 1016.5 0.0
24/07:30am 6.0 3.4 5.9 99 0.0 ENE 9 9 5 5 1016.4 - 0.0
24/07:00am 6.1 3.5 6.0 99 0.0 ENE 9 15 5 8 1016.3 1016.4 0.0
24/06:30am 5.8 2.4 5.7 99 0.0 ENE 13 19 7 10 1016.3 - 0.0
24/06:00am 5.6 1.4 5.6 100 0.0 ENE 17 20 9 11 1016.5 1016.6 0.0
24/05:30am 4.8 1.5 4.8 100 0.0 ENE 11 13 6 7 1016.6 - 0.0
24/05:00am 3.9 1.2 3.9 100 0.0 ENE 7 13 4 7 1016.8 1016.9 0.0
24/04:30am 3.8 1.1 3.8 100 0.0 ENE 7 11 4 6 1016.9 - 0.0
24/04:00am 4.3 1.3 4.3 100 0.0 ENE 9 13 5 7 1017.1 1017.2 0.0
24/03:30am 4.4 1.8 4.4 100 0.0 ENE 7 11 4 6 1017.1 - 0.0
24/03:00am 4.1 1.1 4.1 100 0.0 NE 9 11 5 6 1017.2 1017.3 0.0
24/02:30am 3.7 2.3 3.7 100 0.0 CALM 0 0 0 0 1017.3 - 0.0
24/02:00am 4.2 2.9 4.2 100 0.0 CALM 0 4 0 2 1017.7 1017.8 0.0
24/01:30am 4.3 2.7 4.3 100 0.0 NE 2 7 1 4 1017.7 - 0.0
24/01:00am 4.6 2.6 4.6 100 0.0 NE 4 7 2 4 1017.8 1017.9 0.0
24/12:30am 5.1 3.6 5.1 100 0.0 NNE 2 7 1 4 1018.2 - 0.0
24/12:00am 5.0 3.5 5.0 100 0.0 NE 2 7 1 4 1018.6 1018.7 0.0
 
Date/Time
EST
Temp
°C
App
Temp
°C
Dew
Point
Rel
Hum
%
Delta-T
°C
Wind Press
QNH
hPa
Press
MSL
hPa
Rain
since 9 am
mm
Dir
 
Spd
km/h
Gust
km/h
Spd
kts
Gust
kts
23/11:30pm 6.1 4.1 6.1 100 0.0 NE 6 9 3 5 1018.9 - 0.0

Other Formats:

Comma delimited format used in spreadsheet applications
http://www.bom.gov.au/fwo/IDV60801/IDV60801.95874.axf

JavaScript Object Notation format (JSON) in row-major order
http://www.bom.gov.au/fwo/IDV60801/IDV60801.95874.json